Aviation Digital Data Service (ADDS)

Output produced by METARs form (1221 UTC 24 January 2021)
found at http://www.aviationweather.gov/metar/data/
 
METAR text: WSSL 241200Z 04010KT 9999 FEW018 SCT050 27/22 Q1010
Conditions at: WSSL (SINGAPORE/SELETA, SG) observed 1200 UTC 24 January 2021
Temperature: 27.0°C (81°F)
Dewpoint: 22.0°C (72°F) [RH = 74%]
Pressure (altimeter): 29.82 inches Hg (1010.0 mb)
Winds: from the NE (40 degrees) at 12 MPH (10 knots; 5.1 m/s)
Visibility: 6 or more miles (10+ km)
Ceiling: at least 12,000 feet AGL
Clouds: few clouds at 1800 feet AGL
scattered clouds at 5000 feet AGL
Weather: no significant weather observed at this time

Forecast for: WSSL (SINGAPORE/SELETA, SG)
Text: TAF WSSL 241100Z 2412/2518 01010KT 9999 FEW015CB SCT020
Forecast period: 1200 UTC 24 January 2021 to 1800 UTC 25 January 2021
Forecast type: FROM: standard forecast or significant change
Winds: from the N (10 degrees) at 12 MPH (10 knots; 5.1 m/s)
Visibility: 6 or more miles (10+ km)
Ceiling: at least 12,000 feet AGL
Clouds: few clouds at 1500 feet AGL
scattered clouds at 2000 feet AGL
Weather: no significant weather forecast for this period